Jeffers, Minnesota
Current Conditions -  °F | °C
As of 4:34 PM on Sunday 23 Nov 2014 (Local Time) from KMWM Reporting Station
Overcast Overcast  
Wind Chill: 31°   Ceiling: 3700
Heat Index: 39°   Visibility: 10mi
Dew Point: 34°   Wind: 14mph
Humidity: 81%   Direction: 310°NW
Pressure: 29.47"   Gusts: NA
Location:  44.06°N, 95.2°W
Report Text: KMWM 232234Z AUTO 31012KT 10SM OVC037 04/01 A2947 RMK AO2
Loading
Personal Weather Stations






























Interactive Weather Map New forecast layout! Learn more

10-Day Weather Forecast

Advertisements
Track Severe Weather on mobile